createdAt,value
2019-05-18T00:00:04.921Z,1002.98
2019-05-18T00:01:04.857Z,1003.03
2019-05-18T00:02:06.803Z,1003.01
2019-05-18T00:03:04.673Z,1003.03
2019-05-18T00:04:04.593Z,1003.03
2019-05-18T00:05:04.560Z,1003.02
2019-05-18T00:06:04.436Z,1003.03
2019-05-18T00:07:04.342Z,1002.97
2019-05-18T00:08:04.273Z,1002.98
2019-05-18T00:09:04.174Z,1003.00
2019-05-18T00:10:04.096Z,1003.02
2019-05-18T00:11:04.123Z,1002.98
2019-05-18T00:12:03.919Z,1003.01
2019-05-18T00:13:03.855Z,1003.00
2019-05-18T00:14:04.688Z,1003.04
2019-05-18T00:15:03.707Z,1003.05
2019-05-18T00:16:03.624Z,1003.02
2019-05-18T00:17:03.547Z,1003.03
2019-05-18T00:18:03.414Z,1003.06
2019-05-18T00:19:11.322Z,1002.97
2019-05-18T00:20:03.255Z,1002.99
2019-05-18T00:21:03.174Z,1002.98
2019-05-18T00:22:03.140Z,1003.02
2019-05-18T00:23:03.002Z,1003.00
2019-05-18T00:24:02.920Z,1003.04
2019-05-18T00:25:04.901Z,1003.01
2019-05-18T00:26:02.760Z,1003.02
2019-05-18T00:27:02.661Z,1003.00
2019-05-18T00:28:02.675Z,1002.96
2019-05-18T00:29:02.490Z,1002.97
2019-05-18T00:30:02.481Z,1002.96
2019-05-18T00:31:02.352Z,1002.97
2019-05-18T00:32:02.252Z,1002.97
2019-05-18T00:33:02.209Z,1002.97
2019-05-18T00:34:02.072Z,1002.95
2019-05-18T00:35:02.032Z,1002.98
2019-05-18T00:36:01.940Z,1002.91
2019-05-18T00:37:01.831Z,1002.96
2019-05-18T00:38:01.748Z,1002.97
2019-05-18T00:39:01.765Z,1002.95
2019-05-18T00:40:01.573Z,1002.92
2019-05-18T00:41:01.511Z,1002.87
2019-05-18T00:42:01.495Z,1002.88
2019-05-18T00:43:01.333Z,1002.84
2019-05-18T00:44:02.267Z,1002.84
2019-05-18T00:45:01.161Z,1002.81
2019-05-18T00:46:01.079Z,1002.74
2019-05-18T00:47:01.061Z,1002.74
2019-05-18T00:48:00.911Z,1002.73
2019-05-18T00:49:00.816Z,1002.71
2019-05-18T00:50:00.786Z,1002.67
2019-05-18T00:51:00.661Z,1002.66
2019-05-18T00:52:00.562Z,1002.65
2019-05-18T00:53:00.589Z,1002.67
2019-05-18T00:54:00.399Z,1002.69
2019-05-18T00:55:00.309Z,1002.65
2019-05-18T00:56:00.344Z,1002.64
2019-05-18T00:57:00.164Z,1002.63
2019-05-18T00:58:00.063Z,1002.62
2019-05-18T00:59:00.020Z,1002.61
2019-05-18T00:59:59.897Z,1002.57
2019-05-18T01:00:59.824Z,1002.60
2019-05-18T01:01:59.832Z,1002.58
2019-05-18T01:02:59.642Z,1002.59
2019-05-18T01:03:59.651Z,1002.55
2019-05-18T01:04:59.470Z,1002.59
2019-05-18T01:05:59.491Z,1002.55
2019-05-18T01:06:59.306Z,1002.54
2019-05-18T01:07:59.268Z,1002.59
2019-05-18T01:08:59.143Z,1002.62
2019-05-18T01:09:59.073Z,1002.66
2019-05-18T01:10:58.987Z,1002.66
2019-05-18T01:11:58.985Z,1002.69
2019-05-18T01:12:58.799Z,1002.65
2019-05-18T01:13:58.791Z,1002.64
2019-05-18T01:14:58.668Z,1002.67
2019-05-18T01:15:58.628Z,1002.67
2019-05-18T01:16:58.472Z,1002.71
2019-05-18T01:18:02.009Z,1002.72
2019-05-18T01:18:58.317Z,1002.71
2019-05-18T01:19:58.245Z,1002.72
2019-05-18T01:20:58.170Z,1002.69
2019-05-18T01:21:58.131Z,1002.62
2019-05-18T01:22:57.963Z,1002.65
2019-05-18T01:23:57.986Z,1002.66
2019-05-18T01:24:57.803Z,1002.60
2019-05-18T01:25:57.746Z,1002.57
2019-05-18T01:26:57.665Z,1002.58
2019-05-18T01:27:57.541Z,1002.57
2019-05-18T01:28:57.584Z,1002.64
2019-05-18T01:29:57.374Z,1002.62
2019-05-18T01:30:57.293Z,1002.60
2019-05-18T01:31:57.317Z,1002.66
2019-05-18T01:32:57.129Z,1002.66
2019-05-18T01:33:57.041Z,1002.67
2019-05-18T01:34:56.992Z,1002.65
2019-05-18T01:35:56.874Z,1002.63
2019-05-18T01:36:56.809Z,1002.65
2019-05-18T01:37:56.801Z,1002.61
2019-05-18T01:38:56.625Z,1002.63
2019-05-18T01:39:56.613Z,1002.64
2019-05-18T01:40:56.463Z,1002.65
2019-05-18T01:41:57.407Z,1002.65
2019-05-18T01:42:56.298Z,1002.61
2019-05-18T01:43:56.238Z,1002.65
2019-05-18T01:44:56.122Z,1002.61
2019-05-18T01:45:56.139Z,1002.64
2019-05-18T01:46:55.963Z,1002.60
2019-05-18T01:47:55.873Z,1002.65
2019-05-18T01:48:56.881Z,1002.66
2019-05-18T01:49:55.707Z,1002.64
2019-05-18T01:50:55.624Z,1002.65
2019-05-18T01:51:55.606Z,1002.62
2019-05-18T01:52:55.451Z,1002.60
2019-05-18T01:53:55.381Z,1002.64
2019-05-18T01:54:55.281Z,1002.61
2019-05-18T01:55:55.202Z,1002.66
2019-05-18T01:56:55.229Z,1002.62
2019-05-18T01:57:55.039Z,1002.63
2019-05-18T01:58:54.955Z,1002.63
2019-05-18T01:59:54.924Z,1002.60
2019-05-18T02:00:54.788Z,1002.62
2019-05-18T02:01:54.726Z,1002.60
2019-05-18T02:02:54.730Z,1002.61
2019-05-18T02:03:54.535Z,1002.64
2019-05-18T02:04:54.537Z,1002.64
2019-05-18T02:05:54.377Z,1002.62
2019-05-18T02:06:54.380Z,1002.63
2019-05-18T02:07:54.208Z,1002.56
2019-05-18T02:08:54.154Z,1002.55
2019-05-18T02:09:54.031Z,1002.55
2019-05-18T02:10:54.067Z,1002.57
2019-05-18T02:11:53.882Z,1002.55
2019-05-18T02:12:55.817Z,1002.60
2019-05-18T02:13:53.705Z,1002.58
2019-05-18T02:14:53.681Z,1002.57
2019-05-18T02:15:53.545Z,1002.58
2019-05-18T02:16:53.526Z,1002.56
2019-05-18T02:17:53.377Z,1002.55
2019-05-18T02:18:53.305Z,1002.53
2019-05-18T02:19:53.210Z,1002.54
2019-05-18T02:20:53.218Z,1002.53
2019-05-18T02:21:53.051Z,1002.53
2019-05-18T02:22:52.951Z,1002.52
2019-05-18T02:23:54.977Z,1002.54
2019-05-18T02:24:52.791Z,1002.51
2019-05-18T02:25:52.703Z,1002.49
2019-05-18T02:26:52.673Z,1002.48
2019-05-18T02:27:52.538Z,1002.48
2019-05-18T02:28:52.552Z,1002.48
2019-05-18T02:29:52.372Z,1002.48
2019-05-18T02:30:54.313Z,1002.45
2019-05-18T02:31:52.219Z,1002.48
2019-05-18T02:32:52.122Z,1002.47
2019-05-18T02:33:52.073Z,1002.43
2019-05-18T02:34:51.956Z,1002.46
2019-05-18T02:35:51.871Z,1002.45
2019-05-18T02:36:51.822Z,1002.42
2019-05-18T02:37:51.722Z,1002.36
2019-05-18T02:38:51.695Z,1002.38
2019-05-18T02:39:51.540Z,1002.39
2019-05-18T02:40:51.524Z,1002.41
2019-05-18T02:41:51.426Z,1002.42
2019-05-18T02:42:51.316Z,1002.40
2019-05-18T02:43:51.228Z,1002.41
2019-05-18T02:44:51.233Z,1002.41
2019-05-18T02:45:51.046Z,1002.46
2019-05-18T02:46:51.073Z,1002.52
2019-05-18T02:47:50.878Z,1002.54
2019-05-18T02:48:51.024Z,1002.50
2019-05-18T02:49:50.709Z,1002.49
2019-05-18T02:50:50.660Z,1002.50
2019-05-18T02:51:50.557Z,1002.47
2019-05-18T02:52:50.564Z,1002.49
2019-05-18T02:53:50.371Z,1002.48
2019-05-18T02:54:52.304Z,1002.47
2019-05-18T02:55:50.206Z,1002.44
2019-05-18T02:56:50.229Z,1002.43
2019-05-18T02:57:50.046Z,1002.47
2019-05-18T02:58:49.961Z,1002.44
2019-05-18T02:59:56.869Z,1002.45
2019-05-18T03:00:49.795Z,1002.44
2019-05-18T03:01:49.726Z,1002.38
2019-05-18T03:02:49.625Z,1002.42
2019-05-18T03:03:49.623Z,1002.44
2019-05-18T03:04:49.462Z,1002.48
2019-05-18T03:05:49.370Z,1002.46
2019-05-18T03:06:49.309Z,1002.47
2019-05-18T03:07:49.247Z,1002.44
2019-05-18T03:08:49.122Z,1002.45
2019-05-18T03:09:49.041Z,1002.41
2019-05-18T03:10:48.953Z,1002.41
2019-05-18T03:11:49.917Z,1002.41
2019-05-18T03:12:48.784Z,1002.43
2019-05-18T03:13:48.767Z,1002.42
2019-05-18T03:14:48.621Z,1002.41
2019-05-18T03:15:48.580Z,1002.37
2019-05-18T03:16:48.461Z,1002.37
2019-05-18T03:17:48.364Z,1002.37
2019-05-18T03:19:06.878Z,1002.36
2019-05-18T03:19:48.201Z,1002.36
2019-05-18T03:20:48.120Z,1002.38
2019-05-18T03:21:48.140Z,1002.38
2019-05-18T03:22:47.954Z,1002.38
2019-05-18T03:23:47.863Z,1002.40
2019-05-18T03:24:47.825Z,1002.41
2019-05-18T03:25:47.693Z,1002.39
2019-05-18T03:26:47.639Z,1002.36
2019-05-18T03:27:47.636Z,1002.36
2019-05-18T03:28:47.453Z,1002.39
2019-05-18T03:29:47.358Z,1002.31
2019-05-18T03:30:47.360Z,1002.36
2019-05-18T03:31:47.220Z,1002.35
2019-05-18T03:32:47.117Z,1002.31
2019-05-18T03:33:47.081Z,1002.31
2019-05-18T03:34:46.955Z,1002.32
2019-05-18T03:35:46.864Z,1002.27
2019-05-18T03:36:46.820Z,1002.25
2019-05-18T03:37:46.692Z,1002.27
2019-05-18T03:38:46.604Z,1002.26
2019-05-18T03:39:46.595Z,1002.28
2019-05-18T03:40:46.442Z,1002.30
2019-05-18T03:41:46.669Z,1002.32
2019-05-18T03:42:46.307Z,1002.30
2019-05-18T03:43:46.187Z,1002.31
2019-05-18T03:44:46.119Z,1002.29
2019-05-18T03:45:46.048Z,1002.30
2019-05-18T03:46:45.938Z,1002.33
2019-05-18T03:47:45.873Z,1002.34
2019-05-18T03:48:45.790Z,1002.31
2019-05-18T03:49:45.681Z,1002.32
2019-05-18T03:50:45.601Z,1002.33
2019-05-18T03:51:45.556Z,1002.33
2019-05-18T03:52:45.449Z,1002.37
2019-05-18T03:53:52.421Z,1002.35
2019-05-18T03:54:45.269Z,1002.33
2019-05-18T03:55:45.180Z,1002.31
2019-05-18T03:56:45.179Z,1002.32
2019-05-18T03:57:45.041Z,1002.34
2019-05-18T03:58:44.980Z,1002.31
2019-05-18T03:59:44.856Z,1002.31
2019-05-18T04:00:44.800Z,1002.31
2019-05-18T04:01:44.683Z,1002.28
2019-05-18T04:02:44.604Z,1002.31
2019-05-18T04:03:44.613Z,1002.32
2019-05-18T04:04:44.427Z,1002.34
2019-05-18T04:05:44.350Z,1002.34
2019-05-18T04:06:44.327Z,1002.34
2019-05-18T04:07:44.185Z,1002.36
2019-05-18T04:08:44.134Z,1002.37
2019-05-18T04:09:44.000Z,1002.34
2019-05-18T04:10:43.943Z,1002.38
2019-05-18T04:11:43.837Z,1002.37
2019-05-18T04:12:43.786Z,1002.34
2019-05-18T04:13:43.676Z,1002.39
2019-05-18T04:14:43.662Z,1002.33
2019-05-18T04:15:43.500Z,1002.34
2019-05-18T04:16:43.483Z,1002.36
2019-05-18T04:17:43.345Z,1002.36
2019-05-18T04:18:43.250Z,1002.37
2019-05-18T04:19:46.889Z,1002.35
2019-05-18T04:20:43.087Z,1002.37
2019-05-18T04:21:43.012Z,1002.36
2019-05-18T04:22:42.945Z,1002.38
2019-05-18T04:23:42.832Z,1002.33
2019-05-18T04:24:42.754Z,1002.32
2019-05-18T04:25:43.931Z,1002.33
2019-05-18T04:26:42.581Z,1002.36
2019-05-18T04:27:42.515Z,1002.34
2019-05-18T04:28:42.426Z,1002.42
2019-05-18T04:29:42.334Z,1002.37
2019-05-18T04:30:42.249Z,1002.41
2019-05-18T04:31:42.188Z,1002.42
2019-05-18T04:32:42.092Z,1002.43
2019-05-18T04:33:41.995Z,1002.40
2019-05-18T04:34:41.927Z,1002.42
2019-05-18T04:35:41.845Z,1002.42
2019-05-18T04:36:41.755Z,1002.42
2019-05-18T04:37:41.714Z,1002.47
2019-05-18T04:38:41.587Z,1002.46
2019-05-18T04:39:41.498Z,1002.44
2019-05-18T04:40:41.485Z,1002.48
2019-05-18T04:41:41.333Z,1002.46
2019-05-18T04:42:41.279Z,1002.43
2019-05-18T04:43:41.301Z,1002.50
2019-05-18T04:44:41.090Z,1002.46
2019-05-18T04:45:41.108Z,1002.49
2019-05-18T04:46:40.945Z,1002.50
2019-05-18T04:47:40.856Z,1002.47
2019-05-18T04:48:40.925Z,1002.47
2019-05-18T04:49:40.676Z,1002.48
2019-05-18T04:50:40.588Z,1002.49
2019-05-18T04:51:40.531Z,1002.52
2019-05-18T04:52:40.440Z,1002.56
2019-05-18T04:53:40.342Z,1002.52
2019-05-18T04:54:40.345Z,1002.55
2019-05-18T04:55:40.198Z,1002.53
2019-05-18T04:56:42.817Z,1002.57
2019-05-18T04:57:40.194Z,1002.57
2019-05-18T04:58:39.934Z,1002.56
2019-05-18T04:59:39.851Z,1002.54
2019-05-18T05:00:39.996Z,1002.52
2019-05-18T05:01:39.701Z,1002.53
2019-05-18T05:02:39.614Z,1002.59
2019-05-18T05:03:39.514Z,1002.58
2019-05-18T05:04:39.594Z,1002.57
2019-05-18T05:05:39.351Z,1002.54
2019-05-18T05:06:39.275Z,1002.54
2019-05-18T05:07:39.202Z,1002.53
2019-05-18T05:08:39.117Z,1002.48
2019-05-18T05:09:39.022Z,1002.53
2019-05-18T05:10:38.947Z,1002.54
2019-05-18T05:11:38.933Z,1002.51
2019-05-18T05:12:38.799Z,1002.50
2019-05-18T05:13:38.685Z,1002.49
2019-05-18T05:14:38.646Z,1002.52
2019-05-18T05:15:38.526Z,1002.53
2019-05-18T05:16:38.444Z,1002.50
2019-05-18T05:17:38.491Z,1002.49
2019-05-18T05:18:38.281Z,1002.45
2019-05-18T05:19:38.258Z,1002.48
2019-05-18T05:20:38.168Z,1002.48
2019-05-18T05:21:38.043Z,1002.48
2019-05-18T05:22:37.966Z,1002.44
2019-05-18T05:23:37.869Z,1002.43
2019-05-18T05:24:37.790Z,1002.44
2019-05-18T05:25:37.700Z,1002.44
2019-05-18T05:26:39.445Z,1002.49
2019-05-18T05:27:37.559Z,1002.50
2019-05-18T05:28:37.451Z,1002.54
2019-05-18T05:29:37.385Z,1002.57
2019-05-18T05:30:37.290Z,1002.55
2019-05-18T05:31:37.216Z,1002.57
2019-05-18T05:32:37.137Z,1002.62
2019-05-18T05:33:37.044Z,1002.58
2019-05-18T05:34:36.967Z,1002.62
2019-05-18T05:35:37.844Z,1002.64
2019-05-18T05:36:36.796Z,1002.66
2019-05-18T05:37:36.738Z,1002.62
2019-05-18T05:38:36.646Z,1002.68
2019-05-18T05:39:36.553Z,1002.63
2019-05-18T05:40:36.472Z,1002.67
2019-05-18T05:41:36.381Z,1002.68
2019-05-18T05:42:36.309Z,1002.64
2019-05-18T05:43:36.221Z,1002.68
2019-05-18T05:44:36.133Z,1002.70
2019-05-18T05:45:36.056Z,1002.70
2019-05-18T05:46:37.472Z,1002.72
2019-05-18T05:47:35.900Z,1002.75
2019-05-18T05:48:35.806Z,1002.73
2019-05-18T05:49:35.726Z,1002.76
2019-05-18T05:50:36.735Z,1002.75
2019-05-18T05:51:35.562Z,1002.77
2019-05-18T05:52:35.501Z,1002.78
2019-05-18T05:53:35.397Z,1002.76
2019-05-18T05:54:35.309Z,1002.78
2019-05-18T05:55:35.238Z,1002.82
2019-05-18T05:56:35.150Z,1002.78
2019-05-18T05:57:35.074Z,1002.78
2019-05-18T05:58:34.995Z,1002.83
2019-05-18T05:59:35.168Z,1002.82
2019-05-18T06:00:34.827Z,1002.83
2019-05-18T06:01:34.742Z,1002.86
2019-05-18T06:02:34.661Z,1002.87
2019-05-18T06:03:34.591Z,1002.88
2019-05-18T06:04:34.488Z,1002.84
2019-05-18T06:05:34.422Z,1002.92
2019-05-18T06:06:34.327Z,1002.90
2019-05-18T06:07:34.249Z,1002.97
2019-05-18T06:08:34.181Z,1002.99
2019-05-18T06:09:34.079Z,1002.99
2019-05-18T06:10:34.004Z,1003.02
2019-05-18T06:11:33.927Z,1003.03
2019-05-18T06:12:33.839Z,1003.04
2019-05-18T06:13:33.768Z,1003.08
2019-05-18T06:14:33.676Z,1003.11
2019-05-18T06:15:33.589Z,1003.15
2019-05-18T06:16:33.523Z,1003.18
2019-05-18T06:17:33.436Z,1003.21
2019-05-18T06:18:33.378Z,1003.29
2019-05-18T06:19:33.277Z,1003.38
2019-05-18T06:20:33.182Z,1003.39
2019-05-18T06:21:33.102Z,1003.47
2019-05-18T06:22:33.015Z,1003.50
2019-05-18T06:23:32.956Z,1003.56
2019-05-18T06:24:32.865Z,1003.60
2019-05-18T06:25:34.409Z,1003.61
2019-05-18T06:26:32.699Z,1003.64
2019-05-18T06:27:32.616Z,1003.66
2019-05-18T06:28:32.553Z,1003.69
2019-05-18T06:29:32.451Z,1003.68
2019-05-18T06:30:32.412Z,1003.76
2019-05-18T06:31:32.302Z,1003.78
2019-05-18T06:32:32.208Z,1003.67
2019-05-18T06:33:32.151Z,1003.68
2019-05-18T06:34:32.044Z,1003.65
2019-05-18T06:35:31.968Z,1003.68
2019-05-18T06:36:31.893Z,1003.69
2019-05-18T06:37:31.810Z,1003.80
2019-05-18T06:38:31.737Z,1003.78
2019-05-18T06:39:31.654Z,1003.78
2019-05-18T06:40:31.588Z,1003.82
2019-05-18T06:41:31.493Z,1005.27
2019-05-18T06:42:31.411Z,1003.98
2019-05-18T06:43:31.349Z,1003.98
2019-05-18T06:44:31.246Z,1004.08
2019-05-18T06:45:31.170Z,1003.92
2019-05-18T06:46:31.093Z,1003.95
2019-05-18T06:47:31.011Z,1004.02
2019-05-18T06:48:30.959Z,1003.95
2019-05-18T06:49:30.853Z,1003.94
2019-05-18T06:50:31.257Z,1004.17
2019-05-18T06:51:30.699Z,1004.38
2019-05-18T06:52:30.609Z,1004.13
2019-05-18T06:53:30.531Z,1004.27
2019-05-18T06:54:30.471Z,1004.25
2019-05-18T06:55:30.384Z,1004.24
2019-05-18T06:56:30.291Z,1004.23
2019-05-18T06:57:30.250Z,1004.14
2019-05-18T06:58:30.130Z,1003.98
2019-05-18T06:59:30.075Z,1003.86
2019-05-18T07:00:30.023Z,1003.78
2019-05-18T07:01:29.892Z,1003.79
2019-05-18T07:02:29.816Z,1003.81
2019-05-18T07:03:29.751Z,1003.87
2019-05-18T07:04:29.685Z,1003.86
2019-05-18T07:05:29.586Z,1003.99
2019-05-18T07:06:29.507Z,1004.17
2019-05-18T07:07:29.423Z,1004.34
2019-05-18T07:08:29.346Z,1004.90
2019-05-18T07:09:29.284Z,1004.87
2019-05-18T07:10:29.186Z,1005.50
2019-05-18T07:11:29.114Z,1005.80
2019-05-18T07:12:29.027Z,1005.23
2019-05-18T07:13:28.975Z,1004.89
2019-05-18T07:14:28.897Z,1004.97
2019-05-18T07:15:28.804Z,1004.35
2019-05-18T07:16:28.729Z,1004.32
2019-05-18T07:17:28.642Z,1004.29
2019-05-18T07:18:28.568Z,1004.33
2019-05-18T07:19:28.516Z,1004.41
2019-05-18T07:20:28.418Z,1004.38
2019-05-18T07:21:28.343Z,1004.38
2019-05-18T07:22:28.266Z,1004.55
2019-05-18T07:23:28.191Z,1004.65
2019-05-18T07:24:28.120Z,1005.19
2019-05-18T07:25:28.032Z,1004.72
2019-05-18T07:26:27.963Z,1004.71
2019-05-18T07:27:27.889Z,1005.32
2019-05-18T07:28:27.827Z,1005.12
2019-05-18T07:29:27.757Z,1006.02
2019-05-18T07:30:27.662Z,1012.32
2019-05-18T07:31:27.585Z,1016.16
2019-05-18T07:32:27.494Z,1012.48
2019-05-18T07:33:27.432Z,1007.13
2019-05-18T07:34:27.449Z,1012.83
2019-05-18T07:35:27.280Z,1006.38
2019-05-18T07:36:27.210Z,1007.58
2019-05-18T07:37:27.340Z,1007.25
2019-05-18T07:38:27.041Z,1012.74
2019-05-18T07:39:26.980Z,1015.66
2019-05-18T07:40:26.903Z,1017.33
2019-05-18T07:41:26.822Z,1021.14
2019-05-18T07:42:26.745Z,1020.17
2019-05-18T07:43:26.714Z,1012.20
2019-05-18T07:44:26.616Z,1007.33
2019-05-18T07:45:26.539Z,1007.76
2019-05-18T07:46:26.448Z,1009.45
2019-05-18T07:47:26.377Z,1007.63
2019-05-18T07:48:26.296Z,1005.89
2019-05-18T07:49:26.229Z,1005.60
2019-05-18T07:50:26.164Z,1005.68
2019-05-18T07:51:36.635Z,1007.18
2019-05-18T07:52:26.005Z,1006.13
2019-05-18T07:53:25.927Z,1009.93
2019-05-18T07:54:25.873Z,1006.36
2019-05-18T07:55:25.797Z,1005.67
2019-05-18T07:56:25.719Z,1005.22
2019-05-18T07:57:25.645Z,1004.99
2019-05-18T07:58:25.559Z,1004.78
2019-05-18T07:59:25.492Z,1004.74
2019-05-18T08:00:25.442Z,1004.79
2019-05-18T08:01:25.351Z,1005.06
2019-05-18T08:02:25.267Z,1005.35
2019-05-18T08:03:25.188Z,1005.09
2019-05-18T08:04:25.131Z,1005.05
2019-05-18T08:05:25.073Z,1004.97
2019-05-18T08:06:24.968Z,1005.09
2019-05-18T08:07:24.886Z,1005.26
2019-05-18T08:08:24.816Z,1005.41
2019-05-18T08:09:24.737Z,1005.26
2019-05-18T08:10:24.696Z,1005.90
2019-05-18T08:11:24.595Z,1010.91
2019-05-18T08:12:24.517Z,1011.61
2019-05-18T08:13:24.434Z,1011.64
2019-05-18T08:14:24.359Z,1006.00
2019-05-18T08:15:24.311Z,1006.07
2019-05-18T08:16:24.203Z,1005.66
2019-05-18T08:17:24.131Z,1005.48
2019-05-18T08:18:24.063Z,1005.38
2019-05-18T08:19:23.986Z,1005.08
2019-05-18T08:20:23.937Z,1005.12
2019-05-18T08:21:23.827Z,1005.36
2019-05-18T08:22:23.757Z,1006.21
2019-05-18T08:23:23.670Z,1008.55
2019-05-18T08:24:23.597Z,1009.23
2019-05-18T08:25:23.567Z,1008.75
2019-05-18T08:26:23.445Z,1009.06
2019-05-18T08:27:23.367Z,1008.51
2019-05-18T08:28:23.295Z,1007.35
2019-05-18T08:29:23.217Z,1007.22
2019-05-18T08:30:23.150Z,1011.17
2019-05-18T08:31:23.064Z,1010.18
2019-05-18T08:32:22.986Z,1010.34
2019-05-18T08:33:22.905Z,1010.51
2019-05-18T08:34:22.837Z,1011.89
2019-05-18T08:35:22.773Z,1015.66
2019-05-18T08:36:22.687Z,1013.51
2019-05-18T08:37:22.601Z,1015.13
2019-05-18T08:38:22.531Z,1007.42
2019-05-18T08:39:22.453Z,1005.86
2019-05-18T08:40:22.414Z,1005.75
2019-05-18T08:41:22.307Z,1005.80
2019-05-18T08:42:22.239Z,1007.05
2019-05-18T08:43:22.153Z,1007.34
2019-05-18T08:44:22.082Z,1009.73
2019-05-18T08:45:22.012Z,1011.48
2019-05-18T08:46:21.956Z,1012.78
2019-05-18T08:47:21.877Z,1011.60
2019-05-18T08:48:21.812Z,1011.06
2019-05-18T08:49:21.719Z,1007.67
2019-05-18T08:50:21.662Z,1007.07
2019-05-18T08:51:21.588Z,1007.48
2019-05-18T08:52:21.502Z,1010.30
2019-05-18T08:53:21.427Z,1007.87
2019-05-18T08:54:21.360Z,1007.03
2019-05-18T08:55:21.283Z,1007.98
2019-05-18T08:56:21.223Z,1007.68
2019-05-18T08:57:21.150Z,1006.83
2019-05-18T08:58:21.075Z,1006.09
2019-05-18T08:59:21.003Z,1006.38
2019-05-18T09:00:20.939Z,1006.37
2019-05-18T09:01:20.876Z,1006.76
2019-05-18T09:02:20.790Z,1006.05
2019-05-18T09:03:20.735Z,1005.77
2019-05-18T09:04:20.654Z,1005.66
2019-05-18T09:05:20.585Z,1005.43
2019-05-18T09:06:20.536Z,1005.29
2019-05-18T09:07:20.460Z,1005.15
2019-05-18T09:08:20.377Z,1005.04
2019-05-18T09:09:20.305Z,1005.00
2019-05-18T09:10:20.238Z,1004.86
2019-05-18T09:11:20.203Z,1004.87
2019-05-18T09:12:20.100Z,1004.79
2019-05-18T09:13:20.036Z,1004.76
2019-05-18T09:14:19.957Z,1004.73
2019-05-18T09:15:19.884Z,1004.66
2019-05-18T09:16:19.841Z,1004.66
2019-05-18T09:17:19.744Z,1004.63
2019-05-18T09:18:19.677Z,1004.67
2019-05-18T09:19:19.613Z,1004.79
2019-05-18T09:20:19.533Z,1005.34
2019-05-18T09:21:19.477Z,1005.61
2019-05-18T09:22:23.226Z,1005.33
2019-05-18T09:23:19.317Z,1005.23
2019-05-18T09:24:19.285Z,1005.22
2019-05-18T09:25:19.164Z,1005.04
2019-05-18T09:26:19.125Z,1004.94
2019-05-18T09:27:19.024Z,1004.93
2019-05-18T09:28:18.954Z,1004.98
2019-05-18T09:29:19.060Z,1005.01
2019-05-18T09:30:18.808Z,1005.01
2019-05-18T09:31:18.755Z,1004.97
2019-05-18T09:32:18.674Z,1004.98
2019-05-18T09:33:18.603Z,1004.98
2019-05-18T09:34:18.522Z,1004.99
2019-05-18T09:35:18.445Z,1004.97
2019-05-18T09:36:18.381Z,1005.01
2019-05-18T09:37:18.314Z,1005.00
2019-05-18T09:38:18.237Z,1004.95
2019-05-18T09:39:18.166Z,1004.85
2019-05-18T09:40:18.084Z,1004.78
2019-05-18T09:41:18.009Z,1004.75
2019-05-18T09:42:17.967Z,1004.81
2019-05-18T09:43:17.865Z,1004.92
2019-05-18T09:44:17.796Z,1004.71
2019-05-18T09:45:17.726Z,1005.01
2019-05-18T09:46:17.646Z,1004.99
2019-05-18T09:47:17.592Z,1004.93
2019-05-18T09:48:17.504Z,1004.79
2019-05-18T09:49:17.440Z,1004.76
2019-05-18T09:50:17.359Z,1004.69
2019-05-18T09:51:17.305Z,1004.57
2019-05-18T09:52:17.229Z,1004.57
2019-05-18T09:53:17.164Z,1004.54
2019-05-18T09:54:17.082Z,1004.60
2019-05-18T09:55:17.017Z,1004.63
2019-05-18T09:56:16.957Z,1004.59
2019-05-18T09:57:16.900Z,1004.63
2019-05-18T09:58:16.827Z,1004.70
2019-05-18T09:59:16.762Z,1004.74
2019-05-18T10:00:16.710Z,1004.80
2019-05-18T10:01:16.639Z,1004.84
2019-05-18T10:02:16.614Z,1004.65
2019-05-18T10:03:16.475Z,1004.88
2019-05-18T10:04:16.402Z,1004.88
2019-05-18T10:05:16.342Z,1005.13
2019-05-18T10:06:16.269Z,1005.12
2019-05-18T10:07:16.235Z,1005.07
2019-05-18T10:08:16.150Z,1004.99
2019-05-18T10:09:16.078Z,1004.98
2019-05-18T10:10:16.004Z,1004.92
2019-05-18T10:11:15.950Z,1004.98
2019-05-18T10:12:15.891Z,1004.94
2019-05-18T10:13:15.826Z,1004.91
2019-05-18T10:14:15.750Z,1004.85
2019-05-18T10:15:15.682Z,1004.86
2019-05-18T10:16:15.622Z,1004.91
2019-05-18T10:17:15.564Z,1004.92
2019-05-18T10:18:15.490Z,1004.94
2019-05-18T10:19:15.425Z,1005.02
2019-05-18T10:20:15.367Z,1005.01
2019-05-18T10:21:15.290Z,1005.22
2019-05-18T10:22:15.253Z,1005.47
2019-05-18T10:23:15.167Z,1005.59
2019-05-18T10:24:15.098Z,1005.64
2019-05-18T10:25:15.042Z,1005.81
2019-05-18T10:26:14.969Z,1005.78
2019-05-18T10:27:14.919Z,1005.61
2019-05-18T10:28:14.856Z,1005.55
2019-05-18T10:29:14.773Z,1005.80
2019-05-18T10:30:14.709Z,1005.33
2019-05-18T10:31:14.663Z,1005.75
2019-05-18T10:32:14.604Z,1005.58
2019-05-18T10:33:14.522Z,1006.12
2019-05-18T10:34:14.463Z,1005.97
2019-05-18T10:35:14.393Z,1005.92
2019-05-18T10:36:14.350Z,1005.87
2019-05-18T10:37:14.282Z,1005.87
2019-05-18T10:38:14.206Z,1005.83
2019-05-18T10:39:14.140Z,1005.82
2019-05-18T10:40:14.091Z,1005.84
2019-05-18T10:41:14.014Z,1005.78
2019-05-18T10:42:13.971Z,1005.73
2019-05-18T10:43:13.891Z,1005.78
2019-05-18T10:44:13.830Z,1005.82
2019-05-18T10:45:13.751Z,1005.81
2019-05-18T10:46:13.705Z,1005.73
2019-05-18T10:47:13.650Z,1005.73
2019-05-18T10:48:13.635Z,1005.60
2019-05-18T10:49:13.513Z,1005.52
2019-05-18T10:50:13.467Z,1005.35
2019-05-18T10:51:13.383Z,1005.30
2019-05-18T10:52:13.337Z,1005.34
2019-05-18T10:53:27.412Z,1005.11
2019-05-18T10:54:13.197Z,1004.69
2019-05-18T10:55:15.958Z,1004.53
2019-05-18T10:56:13.064Z,1004.54
2019-05-18T10:57:13.028Z,1004.51
2019-05-18T10:58:12.933Z,1004.58
2019-05-18T10:59:12.871Z,1004.63
2019-05-18T11:00:12.886Z,1004.64
2019-05-18T11:01:12.745Z,1004.64
2019-05-18T11:02:12.690Z,1004.61
2019-05-18T11:03:12.625Z,1004.64
2019-05-18T11:04:12.546Z,1004.65
2019-05-18T11:05:12.484Z,1004.64
2019-05-18T11:06:12.429Z,1004.59
2019-05-18T11:07:12.370Z,1004.56
2019-05-18T11:08:12.286Z,1004.72
2019-05-18T11:09:12.209Z,1004.89
2019-05-18T11:10:12.139Z,1005.31
2019-05-18T11:11:12.084Z,1005.17
2019-05-18T11:12:12.021Z,1004.94
2019-05-18T11:13:11.941Z,1004.87
2019-05-18T11:14:11.935Z,1004.74
2019-05-18T11:15:11.801Z,1004.63
2019-05-18T11:16:11.738Z,1004.60
2019-05-18T11:17:11.778Z,1004.54
2019-05-18T11:18:11.601Z,1004.59
2019-05-18T11:19:11.533Z,1004.51
2019-05-18T11:20:11.580Z,1004.52
2019-05-18T11:21:11.395Z,1004.56
2019-05-18T11:22:11.403Z,1004.57
2019-05-18T11:23:11.259Z,1004.40
2019-05-18T11:24:11.386Z,1004.41
2019-05-18T11:25:11.130Z,1004.38
2019-05-18T11:26:11.056Z,1004.37
2019-05-18T11:27:11.027Z,1004.36
2019-05-18T11:28:10.918Z,1004.42
2019-05-18T11:29:10.849Z,1004.36
2019-05-18T11:30:10.837Z,1004.32
2019-05-18T11:31:10.716Z,1004.21
2019-05-18T11:32:10.664Z,1004.09
2019-05-18T11:33:10.623Z,1004.13
2019-05-18T11:34:10.509Z,1004.03
2019-05-18T11:35:10.476Z,1004.01
2019-05-18T11:36:10.443Z,1003.98
2019-05-18T11:37:10.312Z,1003.98
2019-05-18T11:38:10.238Z,1004.01
2019-05-18T11:39:10.259Z,1004.00
2019-05-18T11:40:10.188Z,1003.99
2019-05-18T11:41:10.029Z,1003.94
2019-05-18T11:42:10.104Z,1003.91
2019-05-18T11:43:09.888Z,1003.95
2019-05-18T11:44:10.875Z,1003.92
2019-05-18T11:45:09.886Z,1003.86
2019-05-18T11:46:09.681Z,1003.80
2019-05-18T11:47:09.624Z,1003.79
2019-05-18T11:48:09.659Z,1003.65
2019-05-18T11:49:09.497Z,1003.79
2019-05-18T11:50:09.423Z,1003.94
2019-05-18T11:51:09.331Z,1003.89
2019-05-18T11:52:09.295Z,1003.85
2019-05-18T11:53:09.200Z,1003.87
2019-05-18T11:54:09.131Z,1003.82
2019-05-18T11:55:09.056Z,1003.63
2019-05-18T11:56:08.978Z,1003.55
2019-05-18T11:57:08.921Z,1003.70
2019-05-18T11:58:08.861Z,1003.66
2019-05-18T11:59:08.791Z,1003.66
2019-05-18T12:00:08.713Z,1003.58
2019-05-18T12:01:08.663Z,1003.53
2019-05-18T12:02:08.585Z,1003.53
2019-05-18T12:03:08.534Z,1003.52
2019-05-18T12:04:08.448Z,1003.51